Aviation Digital Data Service (ADDS)

Output produced by METARs form (1058 UTC 07 December 2022)
found at http://www.aviationweather.gov/metar/data/
 
Forecast for: RJOH (MIHO (CIV/JASDF), JP)
Text: TAF RJOH 070505Z 0706/0812 26016KT 9999 FEW025 BKN045
Forecast period: 0600 UTC 07 December 2022 to 1200 UTC 08 December 2022
Forecast type: FROM: standard forecast or significant change
Winds: from the W (260 degrees) at 18 MPH (16 knots; 8.2 m/s)
Visibility: 6 or more miles (10+ km)
Ceiling: 4500 feet AGL
Clouds: few clouds at 2500 feet AGL
broken clouds at 4500 feet AGL
Weather: no significant weather forecast for this period
Text: TEMPO 0706/0711 26020G30KT
Forecast period: 0600 to 1100 UTC 07 December 2022
Forecast type: TEMPORARY: The following changes expected for less than half the time period
Winds: from the W (260 degrees) at 23 MPH (20 knots; 10.3 m/s)
gusting to 34 MPH (30 knots; 15.4 m/s)
Visibility: missing
Ceiling: unknown
Clouds: missing
Weather: no significant weather forecast for this period